Time;durP1;ratioP1;P1;durP2;ratioP2;P2;SDS_P1;SDS_P2;PMS_P1;PMS_P2;Temp;Humidity;BMP_temperature;BMP_pressure;BME280_temperature;BME280_humidity;BME280_pressure;Samples;Min_cycle;Max_cycle;Signal;HPM_P1;HPM_P2
2021/04/11 00:00:35;;;;;;;5.63;3.47;;;;;;;2.70;67.65;101417.09;5032027;28;20494;-53
2021/04/11 00:03:04;;;;;;;10.13;3.17;;;;;;;2.69;67.55;101418.19;5027499;28;20041;-47
2021/04/11 00:05:33;;;;;;;28.75;2.78;;;;;;;2.66;67.73;101418.75;4994516;28;20049;-50
2021/04/11 00:08:00;;;;;;;3.45;2.35;;;;;;;2.65;67.44;101416.31;5028683;28;20080;-48
2021/04/11 00:10:32;;;;;;;3.30;2.30;;;;;;;2.66;67.57;101424.22;5029046;28;20103;-46
2021/04/11 00:13:01;;;;;;;6.88;3.38;;;;;;;2.64;67.77;101415.47;5029930;28;20038;-50
2021/04/11 00:15:28;;;;;;;3.58;2.25;;;;;;;2.61;67.71;101418.75;5009927;28;20055;-50
2021/04/11 00:17:54;;;;;;;7.60;3.33;;;;;;;2.60;67.66;101417.09;5021230;28;20076;-47
2021/04/11 00:20:21;;;;;;;8.10;2.90;;;;;;;2.59;67.80;101418.22;5034823;28;20181;-50
2021/04/11 00:22:47;;;;;;;5.22;2.33;;;;;;;2.60;67.61;101419.84;5033379;28;20080;-48
2021/04/11 00:25:25;;;;;;;8.25;2.90;;;;;;;2.56;67.87;101423.41;5029968;28;20076;-51
2021/04/11 00:27:51;;;;;;;9.43;3.05;;;;;;;2.51;68.03;101420.69;5022924;28;20426;-46
2021/04/11 00:30:19;;;;;;;3.67;2.47;;;;;;;2.44;68.25;101419.03;5042329;28;20132;-47
2021/04/11 00:32:49;;;;;;;4.45;2.88;;;;;;;2.42;68.02;101420.41;5031975;28;20049;-49
2021/04/11 00:35:17;;;;;;;4.53;2.40;;;;;;;2.42;68.22;101425.88;5048857;28;20087;-47
2021/04/11 00:37:43;;;;;;;4.03;2.38;;;;;;;2.36;68.13;101425.06;5044494;28;20141;-50
2021/04/11 00:40:20;;;;;;;6.70;2.53;;;;;;;2.32;68.59;101423.97;5048139;28;20056;-51
2021/04/11 00:42:58;;;;;;;3.97;2.63;;;;;;;2.34;68.49;101423.69;5037247;28;20136;-50
2021/04/11 00:45:32;;;;;;;4.55;2.75;;;;;;;2.35;68.54;101428.09;5048537;28;20076;-47
2021/04/11 00:48:02;;;;;;;5.68;2.35;;;;;;;2.32;68.40;101426.72;5046085;28;20490;-51
2021/04/11 00:50:29;;;;;;;3.33;2.42;;;;;;;2.29;68.51;101424.53;5051806;28;20045;-50
2021/04/11 00:52:56;;;;;;;3.60;2.50;;;;;;;2.28;68.61;101427.50;5039644;28;20132;-48
2021/04/11 00:55:25;;;;;;;3.20;1.90;;;;;;;2.27;68.47;101425.91;5034759;28;20087;-48
2021/04/11 00:57:52;;;;;;;3.83;1.90;;;;;;;2.25;68.33;101426.16;5053018;28;20080;-47
2021/04/11 01:00:24;;;;;;;5.38;2.08;;;;;;;2.21;68.97;101424.25;5046985;28;20114;-49
2021/04/11 01:02:50;;;;;;;5.72;3.47;;;;;;;2.21;68.55;101427.81;5049632;28;20095;-48
2021/04/11 01:05:28;;;;;;;5.25;2.65;;;;;;;2.18;68.33;101425.63;5050021;28;20041;-48
2021/04/11 01:07:56;;;;;;;5.68;2.03;;;;;;;2.16;68.71;101425.06;5051040;28;20090;-47
2021/04/11 01:10:30;;;;;;;3.40;2.92;;;;;;;2.12;69.11;101421.22;5052455;28;20076;-47
2021/04/11 01:12:57;;;;;;;4.47;2.10;;;;;;;2.08;68.74;101422.88;5052041;28;20061;-51
2021/04/11 01:15:32;;;;;;;5.30;2.42;;;;;;;2.10;68.92;101419.88;5028070;28;20052;-48
2021/04/11 01:17:58;;;;;;;2.72;1.83;;;;;;;2.14;68.86;101420.97;5015222;28;20045;-48
2021/04/11 01:20:26;;;;;;;4.07;2.22;;;;;;;2.09;68.89;101427.25;5037714;28;20049;-48
2021/04/11 01:23:05;;;;;;;4.53;1.90;;;;;;;2.06;69.56;101425.06;5048639;28;20405;-51
2021/04/11 01:25:35;;;;;;;4.75;2.30;;;;;;;2.06;68.54;101418.78;5038406;28;20107;-47
2021/04/11 01:28:10;;;;;;;6.03;2.28;;;;;;;2.06;68.68;101424.25;5052909;28;20076;-47
2021/04/11 01:30:40;;;;;;;3.65;2.15;;;;;;;2.07;68.59;101432.16;5051284;28;20088;-48
2021/04/11 01:33:12;;;;;;;7.63;2.67;;;;;;;2.06;68.65;101422.34;5049794;28;20625;-48
2021/04/11 01:35:38;;;;;;;4.82;1.95;;;;;;;2.05;68.68;101422.59;5049785;28;20050;-52
2021/04/11 01:38:06;;;;;;;8.77;3.63;;;;;;;2.08;68.39;101433.00;5052004;28;20129;-48
2021/04/11 01:40:39;;;;;;;6.88;2.35;;;;;;;2.07;68.80;101431.34;5052657;28;20565;-51
2021/04/11 01:43:07;;;;;;;11.40;2.58;;;;;;;2.04;68.60;101432.69;5051861;28;20072;-48
2021/04/11 01:45:37;;;;;;;5.82;2.72;;;;;;;2.05;68.73;101417.97;5051704;28;20044;-48
2021/04/11 01:48:06;;;;;;;7.53;2.75;;;;;;;2.03;68.53;101435.72;5053184;28;20761;-46
2021/04/11 01:50:33;;;;;;;3.13;2.42;;;;;;;2.00;68.55;101436.25;5044884;28;20151;-47
2021/04/11 01:52:59;;;;;;;4.00;1.88;;;;;;;2.00;68.83;101433.53;5035380;28;20049;-46
2021/04/11 01:55:28;;;;;;;5.53;2.22;;;;;;;2.02;68.80;101439.53;5051473;28;20048;-51
2021/04/11 01:57:56;;;;;;;6.18;2.67;;;;;;;2.03;68.47;101435.72;5049938;28;20052;-51
2021/04/11 02:00:31;;;;;;;6.45;2.75;;;;;;;2.03;68.82;101441.19;5050093;28;20080;-49
2021/04/11 02:03:00;;;;;;;9.13;3.47;;;;;;;1.98;68.58;101439.28;5050045;28;20045;-46
2021/04/11 02:05:26;;;;;;;5.65;2.22;;;;;;;1.96;68.47;101437.91;5051412;28;20124;-50
2021/04/11 02:07:55;;;;;;;5.32;1.88;;;;;;;1.92;68.80;101444.97;5039156;28;20108;-49
2021/04/11 02:10:28;;;;;;;5.30;2.40;;;;;;;1.85;69.01;101435.13;5051346;28;20688;-47
2021/04/11 02:12:54;;;;;;;3.13;1.58;;;;;;;1.85;68.83;101437.84;5051806;28;20037;-48
2021/04/11 02:15:33;;;;;;;5.75;2.10;;;;;;;1.84;69.03;101444.44;5049719;28;20835;-47
2021/04/11 02:17:59;;;;;;;3.53;1.92;;;;;;;1.87;68.59;101444.97;5053060;28;20041;-47
2021/04/11 02:20:29;;;;;;;2.70;1.73;;;;;;;1.82;68.72;101446.63;5052053;28;20449;-47
2021/04/11 02:22:56;;;;;;;3.97;1.88;;;;;;;1.77;68.66;101448.50;5032976;28;20065;-49
2021/04/11 02:25:32;;;;;;;3.55;2.17;;;;;;;1.71;68.89;101439.50;5046200;28;20052;-48
2021/04/11 02:28:00;;;;;;;12.25;3.00;;;;;;;1.70;68.80;101447.94;5047355;28;20049;-46
2021/04/11 02:30:27;;;;;;;7.82;2.17;;;;;;;1.71;69.00;101450.41;5042392;28;20132;-48
2021/04/11 02:32:57;;;;;;;4.68;2.10;;;;;;;1.69;69.07;101457.22;5032091;28;20099;-48
2021/04/11 02:35:27;;;;;;;6.18;2.53;;;;;;;1.67;68.89;101449.28;5002681;28;20058;-49
2021/04/11 02:37:59;;;;;;;3.45;1.92;;;;;;;1.63;68.80;101452.84;5016866;28;20560;-51
2021/04/11 02:40:31;;;;;;;4.53;2.10;;;;;;;1.63;68.67;101448.22;5042964;28;20164;-48
2021/04/11 02:43:00;;;;;;;11.32;2.38;;;;;;;1.56;69.09;101442.16;5030573;28;20068;-49
2021/04/11 02:45:33;;;;;;;3.85;2.00;;;;;;;1.54;68.98;101444.34;5022835;28;20131;-48
2021/04/11 02:48:00;;;;;;;2.97;1.55;;;;;;;1.53;69.01;101444.63;5017075;28;20502;-47
2021/04/11 02:50:30;;;;;;;4.97;2.60;;;;;;;1.52;69.16;101451.16;5035943;28;20081;-48
2021/04/11 02:53:02;;;;;;;7.50;1.85;;;;;;;1.48;69.10;101450.91;5034830;28;20089;-47
2021/04/11 02:55:33;;;;;;;3.53;1.80;;;;;;;1.51;69.13;101455.00;5030905;28;20065;-47
2021/04/11 02:57:59;;;;;;;5.32;2.75;;;;;;;1.49;69.07;101468.88;5031269;28;20096;-49
2021/04/11 03:00:30;;;;;;;7.07;1.88;;;;;;;1.47;69.18;101467.50;5042830;28;20069;-47
2021/04/11 03:02:56;;;;;;;5.28;2.10;;;;;;;1.51;68.70;101471.38;5050540;28;20498;-51
2021/04/11 03:05:25;;;;;;;3.13;1.23;;;;;;;1.46;68.98;101463.97;5029559;28;20458;-48
2021/04/11 03:07:56;;;;;;;6.65;2.40;;;;;;;1.44;68.90;101468.88;5030861;28;20131;-53
2021/04/11 03:10:27;;;;;;;4.95;1.45;;;;;;;1.40;69.11;101473.22;5014034;28;20094;-47
2021/04/11 03:12:56;;;;;;;4.03;1.65;;;;;;;1.35;69.06;101472.38;5030562;28;20578;-48
2021/04/11 03:15:25;;;;;;;5.78;1.80;;;;;;;1.36;69.27;101468.56;5019069;28;20069;-48
2021/04/11 03:17:53;;;;;;;2.72;1.77;;;;;;;1.35;69.03;101467.72;5031577;28;20120;-47
2021/04/11 03:20:34;;;;;;;3.35;1.95;;;;;;;1.31;69.36;101466.63;5031255;28;20512;-50
2021/04/11 03:23:04;;;;;;;3.90;1.75;;;;;;;1.30;69.18;101469.66;5027524;28;20497;-48
2021/04/11 03:25:37;;;;;;;6.78;1.92;;;;;;;1.27;69.51;101473.72;5033392;28;20044;-49
2021/04/11 03:28:14;;;;;;;4.35;1.85;;;;;;;1.25;69.57;101470.41;5051095;28;20040;-47
2021/04/11 03:31:00;;;;;;;3.90;1.60;;;;;;;1.27;69.17;101460.09;5067796;28;20576;-48
2021/04/11 03:33:27;;;;;;;2.95;1.50;;;;;;;1.24;69.26;101471.53;5046767;28;20077;-47
2021/04/11 03:35:54;;;;;;;5.07;1.50;;;;;;;1.22;69.29;101476.41;5049583;28;20128;-52
2021/04/11 03:38:27;;;;;;;5.68;1.77;;;;;;;1.21;69.33;101472.06;5043596;28;20041;-50
2021/04/11 03:40:57;;;;;;;4.45;1.90;;;;;;;1.14;69.28;101476.91;5050533;28;20041;-49
2021/04/11 03:43:38;;;;;;;5.35;1.65;;;;;;;1.17;69.34;101482.66;5048582;28;20547;-50
2021/04/11 03:46:29;;;;;;;2.42;1.00;;;;;;;1.14;69.43;101485.91;5040938;28;20037;-47
2021/04/11 03:49:04;;;;;;;10.18;1.90;;;;;;;1.11;69.61;101477.47;5051092;28;20804;-48
2021/04/11 03:51:35;;;;;;;4.38;1.50;;;;;;;1.11;69.30;101485.63;5041915;28;20102;-47
2021/04/11 03:54:10;;;;;;;4.75;1.85;;;;;;;1.14;69.35;101487.81;5038945;28;20111;-48
2021/04/11 03:56:45;;;;;;;6.30;1.48;;;;;;;1.10;69.27;101486.72;5054482;28;20505;-46
2021/04/11 03:59:23;;;;;;;10.35;1.65;;;;;;;1.10;69.64;101486.72;5058437;28;20053;-49
2021/04/11 04:01:54;;;;;;;2.95;1.67;;;;;;;1.14;69.22;101496.00;5049547;28;20051;-46
2021/04/11 04:04:25;;;;;;;7.57;2.20;;;;;;;1.16;69.05;101491.13;5042255;28;20677;-49
2021/04/11 04:07:00;;;;;;;4.28;2.63;;;;;;;1.10;69.27;101493.00;5050399;28;20124;-47
2021/04/11 04:09:27;;;;;;;3.42;1.17;;;;;;;1.13;69.11;101494.38;5058280;28;20061;-47
2021/04/11 04:12:08;;;;;;;6.40;1.98;;;;;;;1.12;69.36;101498.16;5053221;28;20118;-48
2021/04/11 04:14:59;;;;;;;5.70;2.00;;;;;;;1.07;69.78;101498.16;5048132;28;20490;-49
2021/04/11 04:17:53;;;;;;;5.05;1.40;;;;;;;1.06;69.42;101510.16;5044320;28;20553;-50
2021/04/11 04:20:38;;;;;;;5.95;1.27;;;;;;;1.05;69.54;101495.69;5043460;28;20045;-48
2021/04/11 04:23:24;;;;;;;5.60;1.60;;;;;;;1.06;69.28;101501.97;5048551;28;20131;-49
2021/04/11 04:26:11;;;;;;;6.07;1.40;;;;;;;1.01;69.68;101507.38;5048716;28;20552;-49
2021/04/11 04:28:43;;;;;;;3.83;1.88;;;;;;;1.01;69.31;101510.09;5068394;28;20405;-51
2021/04/11 04:31:25;;;;;;;9.88;3.72;;;;;;;0.98;69.29;101506.00;5033063;28;20096;-48
2021/04/11 04:33:54;;;;;;;6.15;2.22;;;;;;;0.97;69.34;101504.38;5025911;28;20394;-48
2021/04/11 04:36:43;;;;;;;6.88;3.42;;;;;;;0.93;69.43;101514.13;5047055;28;20391;-54
2021/04/11 04:39:28;;;;;;;5.72;2.50;;;;;;;0.92;69.44;101517.13;5022958;28;20068;-49
2021/04/11 04:42:04;;;;;;;7.97;1.92;;;;;;;0.92;69.74;101522.59;5037106;28;20069;-48
2021/04/11 04:44:53;;;;;;;7.40;3.95;;;;;;;0.90;69.85;101519.31;5034612;28;20474;-46
2021/04/11 04:47:35;;;;;;;6.00;1.67;;;;;;;0.87;70.20;101519.84;5015159;28;20169;-47
2021/04/11 04:50:07;;;;;;;3.55;1.52;;;;;;;0.87;69.45;101533.47;5034191;28;20132;-51
2021/04/11 04:52:34;;;;;;;6.97;1.83;;;;;;;0.86;69.46;101534.53;5033023;28;20041;-47
2021/04/11 04:55:09;;;;;;;6.90;1.88;;;;;;;0.85;69.45;101538.38;5033776;28;20459;-47
2021/04/11 04:57:43;;;;;;;5.68;1.80;;;;;;;0.83;69.54;101535.06;5029134;28;20104;-49
2021/04/11 05:00:29;;;;;;;6.75;1.42;;;;;;;0.82;69.89;101538.88;5050094;28;20459;-48
2021/04/11 05:03:18;;;;;;;3.38;1.50;;;;;;;0.81;69.52;101537.22;5034134;28;20128;-47
2021/04/11 05:06:05;;;;;;;2.60;1.33;;;;;;;0.74;69.77;101534.75;5015249;28;20093;-47
2021/04/11 05:08:40;;;;;;;4.47;1.67;;;;;;;0.74;69.59;101539.38;5027795;28;20128;-49
2021/04/11 05:11:19;;;;;;;3.88;1.60;;;;;;;0.74;69.99;101542.09;5014226;28;20107;-47
2021/04/11 05:13:51;;;;;;;2.92;1.60;;;;;;;0.76;69.78;101537.19;5030495;28;20077;-47
2021/04/11 05:16:27;;;;;;;4.65;1.77;;;;;;;0.74;69.92;101542.09;5033771;28;20487;-46
2021/04/11 05:19:01;;;;;;;5.07;1.73;;;;;;;0.72;69.90;101541.50;5033214;28;20148;-48
2021/04/11 05:21:35;;;;;;;3.78;1.92;;;;;;;0.72;69.89;101546.94;5043661;28;20137;-47
2021/04/11 05:24:07;;;;;;;6.40;1.85;;;;;;;0.72;69.99;101545.06;5027785;28;20092;-47
2021/04/11 05:26:39;;;;;;;2.65;2.28;;;;;;;0.70;70.04;101544.50;5033178;28;20486;-47
2021/04/11 05:29:09;;;;;;;;;;;;;;;0.69;70.02;101547.50;5055044;28;20072;-48
2021/04/11 05:31:37;;;;;;;6.40;1.80;;;;;;;0.68;69.73;101551.28;5037919;28;19978;-48
2021/04/11 05:34:07;;;;;;;5.03;2.22;;;;;;;0.69;69.60;101555.69;5060993;28;20064;-47
2021/04/11 05:36:46;;;;;;;7.57;1.70;;;;;;;0.69;70.04;101555.69;5056270;28;20359;-47
2021/04/11 05:39:22;;;;;;;6.45;2.08;;;;;;;0.72;69.70;101568.75;5055750;28;20529;-47
2021/04/11 05:42:02;;;;;;;7.78;2.38;;;;;;;0.75;69.84;101566.34;5053038;28;20132;-48
2021/04/11 05:44:49;;;;;;;6.03;2.25;;;;;;;0.74;70.18;101580.25;5059701;28;20044;-50
2021/04/11 05:47:24;;;;;;;4.72;2.20;;;;;;;0.78;69.81;101575.91;5064775;28;20079;-52
2021/04/11 05:49:57;;;;;;;5.70;2.25;;;;;;;0.76;69.73;101576.16;5030210;28;20048;-47
2021/04/11 05:52:33;;;;;;;9.20;1.70;;;;;;;0.75;70.01;101573.69;5056740;28;20052;-50
2021/04/11 05:55:04;;;;;;;7.63;2.50;;;;;;;0.77;69.89;101582.44;5061030;28;20036;-49
2021/04/11 05:57:36;;;;;;;8.68;2.28;;;;;;;0.78;69.88;101581.34;5060289;28;20040;-47
2021/04/11 06:00:17;;;;;;;5.40;2.03;;;;;;;0.78;70.16;101590.34;5061450;28;20075;-48
2021/04/11 06:02:48;;;;;;;3.20;1.73;;;;;;;0.78;69.73;101593.09;5055881;28;20040;-46
2021/04/11 06:05:35;;;;;;;7.28;2.70;;;;;;;0.79;70.08;101599.34;5066966;28;20048;-49
2021/04/11 06:08:12;;;;;;;6.82;3.53;;;;;;;0.75;69.86;101599.03;5063487;28;20041;-49
2021/04/11 06:10:52;;;;;;;5.18;2.83;;;;;;;0.78;70.09;101597.69;5057089;28;20091;-47
2021/04/11 06:13:25;;;;;;;6.18;2.80;;;;;;;0.80;69.96;101601.81;5056472;28;20447;-48
2021/04/11 06:16:16;;;;;;;4.22;2.30;;;;;;;0.79;70.53;101610.25;5033280;28;20049;-49
2021/04/11 06:18:46;;;;;;;2.38;2.00;;;;;;;0.83;69.97;101608.66;5043138;28;20136;-48
2021/04/11 06:21:21;;;;;;;4.32;2.00;;;;;;;0.84;70.12;101613.03;5067185;28;20163;-48
2021/04/11 06:24:19;;;;;;;6.43;2.42;;;;;;;0.88;70.07;101614.97;5049931;28;20123;-49
2021/04/11 06:27:09;;;;;;;5.38;2.28;;;;;;;0.93;70.02;101628.63;5050762;28;20087;-46
2021/04/11 06:30:12;;;;;;;4.57;2.20;;;;;;;0.97;70.20;101629.78;5036831;28;20076;-51
2021/04/11 06:32:47;;;;;;;10.07;1.95;;;;;;;0.98;70.13;101625.16;5042952;28;20142;-47
2021/04/11 06:35:17;;;;;;;5.80;1.70;;;;;;;0.99;70.17;101634.97;5030324;28;20456;-50
2021/04/11 06:37:45;;;;;;;1.95;1.33;;;;;;;0.99;70.20;101629.50;5051675;28;20037;-48
2021/04/11 06:40:40;;;;;;;11.00;2.25;;;;;;;1.05;70.13;101631.19;5051200;28;20045;-47
2021/04/11 06:43:27;;;;;;;6.15;1.88;;;;;;;1.09;70.15;101637.75;5040999;28;20140;-48
2021/04/11 06:46:03;;;;;;;5.90;1.60;;;;;;;1.11;70.06;101635.63;5037890;28;20095;-47
2021/04/11 06:48:59;;;;;;;4.65;1.55;;;;;;;1.14;70.22;101645.97;5051725;28;20079;-47
2021/04/11 06:51:32;;;;;;;4.85;2.13;;;;;;;1.15;70.10;101644.91;5046100;28;20041;-47
2021/04/11 06:54:20;;;;;;;6.63;1.52;;;;;;;1.17;70.13;101650.91;5049056;28;20390;-47
2021/04/11 06:56:49;;;;;;;2.58;1.58;;;;;;;1.20;70.31;101653.13;5037663;28;20128;-47
2021/04/11 06:59:51;;;;;;;4.38;1.70;;;;;;;1.18;70.50;101647.94;5050193;28;20037;-47
2021/04/11 07:02:48;;;;;;;7.45;2.13;;;;;;;1.23;70.57;101658.06;5049471;28;20532;-49
2021/04/11 07:05:29;;;;;;;4.32;1.70;;;;;;;1.28;70.44;101662.72;5031529;28;20393;-47
2021/04/11 07:08:18;;;;;;;3.30;1.70;;;;;;;1.28;70.55;101666.28;5050638;28;20120;-47
2021/04/11 07:10:57;;;;;;;5.13;2.00;;;;;;;1.35;70.50;101658.69;5039223;28;20044;-48
2021/04/11 07:13:42;;;;;;;8.10;1.80;;;;;;;1.41;70.79;101667.72;5051078;28;20094;-47
2021/04/11 07:16:20;;;;;;;7.28;2.20;;;;;;;1.45;70.54;101666.97;5027203;28;20131;-47
2021/04/11 07:19:14;;;;;;;4.60;2.70;;;;;;;1.49;70.76;101676.25;5051629;28;20106;-50
2021/04/11 07:21:49;;;;;;;4.68;1.75;;;;;;;1.54;70.71;101672.72;5049514;28;20123;-47
2021/04/11 07:24:43;;;;;;;4.00;1.58;;;;;;;1.61;70.17;101671.44;5050091;28;20036;-48
2021/04/11 07:27:12;;;;;;;4.78;2.78;;;;;;;1.67;70.24;101688.66;5044920;28;20826;-48
2021/04/11 07:29:49;;;;;;;5.47;1.83;;;;;;;1.74;70.38;101684.63;5056377;28;20084;-48
2021/04/11 07:32:28;;;;;;;6.88;1.45;;;;;;;1.82;70.34;101691.50;5031533;28;20440;-49
2021/04/11 07:35:14;;;;;;;5.88;1.60;;;;;;;1.87;71.02;101687.97;5039958;28;20119;-47
2021/04/11 07:37:53;;;;;;;7.47;2.53;;;;;;;1.92;70.32;101686.09;5029593;28;20546;-49
2021/04/11 07:41:03;;;;;;;10.68;1.50;;;;;;;1.99;70.76;101691.28;5049986;28;20049;-48
2021/04/11 07:43:54;;;;;;;6.35;1.65;;;;;;;2.06;70.10;101702.81;4973180;28;20445;-47
2021/04/11 07:46:23;;;;;;;3.88;1.42;;;;;;;2.12;69.96;101704.50;5050813;28;20756;-49
2021/04/11 07:49:01;;;;;;;8.70;1.60;;;;;;;2.16;70.12;101695.50;5045146;28;20433;-47
2021/04/11 07:51:53;;;;;;;4.35;2.00;;;;;;;2.24;70.23;101705.09;5051344;28;20045;-47
2021/04/11 07:55:04;;;;;;;3.97;1.70;;;;;;;2.27;70.15;101704.56;5051508;28;20459;-49
2021/04/11 07:58:15;;;;;;;9.05;2.08;;;;;;;2.34;69.95;101705.13;5026980;28;20060;-51
2021/04/11 08:00:59;;;;;;;2.55;1.10;;;;;;;2.38;70.00;101706.25;5054250;28;20430;-51
2021/04/11 08:03:35;;;;;;;9.50;1.85;;;;;;;2.45;70.08;101699.44;5057653;28;20057;-50
2021/04/11 08:06:16;;;;;;;3.55;1.65;;;;;;;2.53;70.02;101706.31;5055066;28;20041;-51
2021/04/11 08:09:16;;;;;;;8.07;1.73;;;;;;;2.65;70.51;101712.34;5068813;28;20503;-52
2021/04/11 08:12:08;;;;;;;5.90;1.60;;;;;;;2.75;70.27;101712.41;5046200;28;20066;-50
2021/04/11 08:14:50;;;;;;;4.57;1.70;;;;;;;2.83;70.34;101703.63;5057332;28;20589;-51
2021/04/11 08:17:34;;;;;;;4.68;1.20;;;;;;;2.93;70.09;101702.84;5056059;28;20060;-51
2021/04/11 08:20:14;;;;;;;4.80;1.88;;;;;;;3.06;70.88;101703.16;5053211;28;20094;-52
2021/04/11 08:23:11;;;;;;;2.83;1.10;;;;;;;3.20;71.36;101706.16;5048588;28;20113;-50
2021/04/11 08:25:58;;;;;;;2.00;1.73;;;;;;;3.32;71.54;101709.44;5058877;28;20072;-54
2021/04/11 08:28:46;;;;;;;4.38;1.27;;;;;;;3.46;72.72;101712.47;5043568;28;20409;-52
2021/04/11 08:31:13;;;;;;;3.28;1.00;;;;;;;3.64;73.08;101714.63;5054450;28;20095;-48
2021/04/11 08:33:48;;;;;;;3.92;1.30;;;;;;;3.89;72.86;101713.78;5056264;28;20052;-51
2021/04/11 08:36:39;;;;;;;7.88;1.52;;;;;;;4.13;74.17;101706.59;5054307;28;20095;-52
2021/04/11 08:39:24;;;;;;;7.10;1.38;;;;;;;4.43;71.46;101714.69;5054438;28;20073;-47
2021/04/11 08:42:12;;;;;;;3.38;1.48;;;;;;;4.84;73.95;101723.56;5053978;28;20576;-47
2021/04/11 08:45:26;;;;;;;3.38;1.50;;;;;;;5.33;74.00;101710.56;5037881;28;20068;-47
2021/04/11 08:48:24;;;;;;;4.70;1.30;;;;;;;6.06;72.96;101719.53;5012341;28;20068;-48
2021/04/11 08:51:03;;;;;;;4.15;1.45;;;;;;;6.86;74.46;101716.09;5047818;28;20059;-50
2021/04/11 08:53:38;;;;;;;5.95;2.47;;;;;;;7.96;71.03;101719.78;5055768;28;20123;-53
2021/04/11 08:56:14;;;;;;;8.07;1.92;;;;;;;9.09;68.25;101723.50;5055205;28;20123;-46
2021/04/11 08:58:53;;;;;;;4.93;1.50;;;;;;;9.70;65.52;101727.56;5036005;28;20661;-47
2021/04/11 09:01:47;;;;;;;3.22;1.17;;;;;;;10.27;58.84;101729.34;5055495;28;20041;-51
2021/04/11 09:04:29;;;;;;;3.25;1.10;;;;;;;10.84;61.41;101727.41;5054294;28;20045;-48
2021/04/11 09:06:59;;;;;;;;;;;;;;;11.11;58.89;101726.31;5042883;28;20524;-49
2021/04/11 09:09:43;;;;;;;3.03;0.93;;;;;;;11.40;60.57;101734.81;5049779;28;19928;-51
2021/04/11 09:12:38;;;;;;;4.65;1.05;;;;;;;11.88;58.58;101729.06;5041195;28;20094;-50
2021/04/11 09:15:20;;;;;;;3.00;1.40;;;;;;;12.40;55.97;101726.91;5051189;28;20493;-52
2021/04/11 09:18:05;;;;;;;3.67;1.42;;;;;;;12.48;51.51;101731.63;5052063;28;20120;-48
2021/04/11 09:20:40;;;;;;;4.68;1.67;;;;;;;12.64;49.69;101729.09;5032677;28;20138;-48
2021/04/11 09:23:35;;;;;;;5.80;1.92;;;;;;;12.93;47.52;101728.25;5050652;28;20072;-49
2021/04/11 09:26:34;;;;;;;5.07;3.20;;;;;;;13.12;48.36;101734.22;5035184;28;20033;-50
2021/04/11 09:29:30;;;;;;;23.08;11.40;;;;;;;13.40;48.70;101735.28;5043185;28;20041;-52
2021/04/11 09:32:21;;;;;;;19.58;8.75;;;;;;;13.54;45.82;101727.47;5045673;28;20155;-49
2021/04/11 09:35:01;;;;;;;16.65;7.40;;;;;;;13.51;48.53;101742.06;5039232;28;20075;-49
2021/04/11 09:37:45;;;;;;;16.90;8.15;;;;;;;13.41;46.51;101736.91;5047623;28;20458;-50
2021/04/11 09:40:14;;;;;;;19.98;9.65;;;;;;;13.62;47.40;101734.94;5047967;28;20053;-48
2021/04/11 09:43:25;;;;;;;13.13;4.60;;;;;;;13.72;43.01;101742.03;5050512;28;20064;-50
2021/04/11 09:46:13;;;;;;;6.13;2.65;;;;;;;13.45;44.25;101731.50;4968896;28;20158;-50
2021/04/11 09:49:07;;;;;;;3.08;1.10;;;;;;;13.68;43.71;101733.56;4964976;28;20105;-49
2021/04/11 09:52:01;;;;;;;3.97;1.27;;;;;;;13.61;42.33;101730.50;4999952;28;20062;-48
2021/04/11 09:54:43;;;;;;;3.38;0.68;;;;;;;13.59;40.96;101743.97;5041530;28;20132;-49
2021/04/11 09:57:48;;;;;;;2.72;1.00;;;;;;;13.70;42.02;101739.59;5043480;28;20044;-49
2021/04/11 10:00:40;;;;;;;3.50;1.50;;;;;;;13.68;40.61;101747.50;5041527;28;20037;-49
2021/04/11 10:03:15;;;;;;;3.17;0.98;;;;;;;13.92;42.61;101747.56;5047752;28;20052;-50
2021/04/11 10:06:00;;;;;;;4.72;1.58;;;;;;;13.46;40.42;101731.16;5044220;28;20057;-48
2021/04/11 10:08:42;;;;;;;1.85;0.88;;;;;;;13.39;41.44;101733.69;5030502;28;20041;-47
2021/04/11 10:11:20;;;;;;;3.33;0.75;;;;;;;13.58;42.69;101733.19;5042920;28;20088;-51
2021/04/11 10:14:07;;;;;;;2.35;0.70;;;;;;;13.78;42.17;101735.91;5048390;28;20128;-49
2021/04/11 10:16:46;;;;;;;2.28;0.60;;;;;;;13.90;41.27;101733.16;5033846;28;20040;-45
2021/04/11 10:19:31;;;;;;;2.72;0.70;;;;;;;13.99;40.16;101731.13;5024417;28;20047;-49
2021/04/11 10:22:22;;;;;;;3.50;0.70;;;;;;;14.26;39.20;101728.84;5024976;28;20068;-47
2021/04/11 10:25:05;;;;;;;2.08;0.38;;;;;;;13.62;39.30;101732.16;5042915;28;20072;-46
2021/04/11 10:28:06;;;;;;;2.95;1.00;;;;;;;12.35;39.21;101732.66;5030699;28;20128;-48
2021/04/11 10:30:35;;;;;;;1.90;0.82;;;;;;;11.34;41.42;101747.19;5046380;28;20525;-46
2021/04/11 10:33:46;;;;;;;1.88;0.43;;;;;;;11.55;41.16;101737.06;5040439;28;20549;-44
2021/04/11 10:36:20;;;;;;;1.70;0.60;;;;;;;12.14;41.45;101734.53;4977539;28;20121;-44
2021/04/11 10:38:56;;;;;;;3.85;0.50;;;;;;;12.62;41.21;101729.44;4972713;28;20051;-45
2021/04/11 10:42:03;;;;;;;1.95;0.52;;;;;;;12.70;40.75;101733.31;5006563;28;20144;-50
2021/04/11 10:44:58;;;;;;;1.92;0.52;;;;;;;12.66;40.26;101747.06;5042323;28;20041;-47
2021/04/11 10:47:59;;;;;;;0.90;0.50;;;;;;;12.88;40.56;101734.00;5031296;28;20083;-47
2021/04/11 10:51:02;;;;;;;0.73;0.40;;;;;;;12.97;40.40;101737.56;5041058;28;20458;-49
2021/04/11 10:53:59;;;;;;;3.95;0.57;;;;;;;12.62;40.14;101740.56;5034513;28;20068;-46
2021/04/11 10:56:54;;;;;;;2.40;0.60;;;;;;;12.46;40.25;101733.09;5019954;28;20045;-45
2021/04/11 10:59:49;;;;;;;1.00;0.45;;;;;;;11.88;40.12;101733.78;5049334;28;20076;-49
2021/04/11 11:02:30;;;;;;;4.10;0.50;;;;;;;11.44;41.56;101746.03;5046936;28;20080;-47
2021/04/11 11:05:18;;;;;;;2.97;0.50;;;;;;;11.18;41.88;101743.28;5047074;28;20045;-44
2021/04/11 11:07:51;;;;;;;1.50;0.20;;;;;;;11.21;41.23;101741.81;5044559;28;20103;-49
2021/04/11 11:10:29;;;;;;;1.67;0.45;;;;;;;11.12;42.05;101739.03;5048725;28;20447;-46
2021/04/11 11:13:02;;;;;;;3.25;0.70;;;;;;;10.65;42.66;101751.00;5037306;28;20049;-48
2021/04/11 11:16:06;;;;;;;;;;;;;;;10.17;42.80;101749.00;5049612;28;20091;-49
2021/04/11 11:19:01;;;;;;;1.48;0.20;;;;;;;9.64;43.51;101764.75;4949375;29;19981;-47
2021/04/11 11:21:51;;;;;;;2.72;1.17;;;;;;;9.58;44.67;101749.44;4972947;28;20130;-45
2021/04/11 11:24:51;;;;;;;7.53;0.93;;;;;;;9.73;44.39;101752.63;5019767;28;20053;-51
2021/04/11 11:27:44;;;;;;;2.83;0.50;;;;;;;9.65;44.16;101753.38;5046230;28;20045;-43
2021/04/11 11:31:07;;;;;;;4.68;1.65;;;;;;;9.42;44.15;101762.00;5028706;28;20604;-46
2021/04/11 11:33:55;;;;;;;2.65;0.43;;;;;;;8.92;44.27;101762.00;4971614;28;20131;-48
2021/04/11 11:36:32;;;;;;;0.50;0.40;;;;;;;8.62;44.76;101765.41;5041342;28;20446;-47
2021/04/11 11:39:17;;;;;;;10.00;1.00;;;;;;;8.25;45.48;101768.34;5049025;28;20068;-46
2021/04/11 11:41:52;;;;;;;1.30;0.47;;;;;;;8.26;45.44;101762.50;5038948;28;20081;-48
2021/04/11 11:44:26;;;;;;;3.67;0.47;;;;;;;8.39;45.16;101763.69;5048196;28;20134;-44
2021/04/11 11:47:03;;;;;;;1.38;0.40;;;;;;;8.54;45.01;101755.09;5053521;28;20394;-47
2021/04/11 11:49:56;;;;;;;1.55;0.40;;;;;;;8.75;44.75;101748.03;5045200;28;20483;-46
2021/04/11 11:52:45;;;;;;;1.38;0.50;;;;;;;8.89;44.80;101754.34;5037819;28;20485;-47
2021/04/11 11:55:19;;;;;;;8.15;1.20;;;;;;;8.95;45.39;101764.16;5064137;28;20044;-46
2021/04/11 11:58:18;;;;;;;13.52;1.45;;;;;;;8.81;45.39;101766.13;5053587;28;20061;-46
2021/04/11 12:00:55;;;;;;;0.70;0.30;;;;;;;8.58;45.49;101769.91;5031417;28;20076;-46
2021/04/11 12:03:24;;;;;;;2.63;0.52;;;;;;;8.33;45.81;101762.13;5053629;28;20120;-48
2021/04/11 12:06:29;;;;;;;2.03;1.13;;;;;;;8.11;45.50;101760.03;5049373;28;20045;-45
2021/04/11 12:09:38;;;;;;;0.70;0.70;;;;;;;8.15;44.96;101765.78;5038322;28;20054;-49
2021/04/11 12:12:14;;;;;;;1.58;0.50;;;;;;;8.28;44.52;101762.25;5031262;28;20495;-46
2021/04/11 12:15:03;;;;;;;1.45;0.40;;;;;;;8.48;44.93;101761.84;5043175;28;20462;-47
2021/04/11 12:17:54;;;;;;;0.65;0.40;;;;;;;8.73;43.08;101755.81;5039760;28;20140;-46
2021/04/11 12:20:43;;;;;;;2.17;0.30;;;;;;;8.91;43.97;101752.09;5041248;28;20038;-50
2021/04/11 12:23:28;;;;;;;0.57;0.22;;;;;;;9.07;42.92;101755.34;5033354;28;20145;-48
2021/04/11 12:26:09;;;;;;;1.27;0.40;;;;;;;9.27;40.74;101754.03;5026879;28;20466;-45
2021/04/11 12:28:37;;;;;;;0.73;0.30;;;;;;;9.45;43.21;101744.78;5029449;28;20483;-46